| time (UTC) | temp F | wind direction | speed MPH | gust MPH | rain 1hr in | rain 24hr in | rain mn in | humidity % | barometer mb |
| 20260906220240 | 82 | 160 | 7.0 | 15.0 | 0.00 | 0.00 | 0.00 | 38 | 1296.9 |
| 20260906215739 | 83 | 154 | 6.0 | 9.0 | 0.00 | 0.00 | 0.00 | 37 | 1296.9 |
| 20260906215239 | 86 | 161 | 9.0 | 15.0 | 0.00 | 0.00 | 0.00 | 34 | 1297.0 |
| 20260906214737 | 85 | 175 | 5.0 | 11.0 | 0.00 | 0.00 | 0.00 | 35 | 1297.0 |
| 20260906214233 | 86 | 105 | 9.0 | 14.0 | 0.00 | 0.00 | 0.00 | 34 | 1297.1 |
| 20260906213732 | 85 | 191 | 6.0 | 13.0 | 0.00 | 0.00 | 0.00 | 36 | 1297.3 |
| 20260906213225 | 86 | 91 | 8.0 | 15.0 | 0.00 | 0.00 | 0.00 | 34 | 1297.1 |
| 20260906212723 | 85 | 182 | 6.0 | 21.0 | 0.00 | 0.00 | 0.00 | 35 | 1297.3 |
| 20260906212219 | 85 | 162 | 12.0 | 18.0 | 0.00 | 0.00 | 0.00 | 36 | 1297.5 |
| 20260906211718 | 87 | 184 | 7.0 | 18.0 | 0.00 | 0.00 | 0.00 | 35 | 1297.5 |
| 20260906211209 | 86 | 157 | 7.0 | 20.0 | 0.00 | 0.00 | 0.00 | 34 | 1297.4 |
| 20260906210704 | 86 | 127 | 11.0 | 17.0 | 0.00 | 0.00 | 0.00 | 35 | 1297.5 |
| 20260906210204 | 86 | 148 | 13.0 | 17.0 | 0.00 | 0.00 | 0.00 | 34 | 1297.4 |
| 20260906205658 | 87 | 218 | 8.0 | 13.0 | 0.00 | 0.00 | 0.00 | 33 | 1297.5 |
| 20260906205154 | 87 | 143 | 16.0 | 20.0 | 0.00 | 0.00 | 0.00 | 31 | 1297.8 |
| 20260906204649 | 86 | 194 | 4.0 | 15.0 | 0.00 | 0.00 | 0.00 | 33 | 1297.6 |
| 20260906204143 | 87 | 125 | 10.0 | 15.0 | 0.00 | 0.00 | 0.00 | 33 | 1297.8 |
| 20260906203643 | 87 | 261 | 5.0 | 8.0 | 0.00 | 0.00 | 0.00 | 32 | 1298.0 |
| 20260906203138 | 87 | 149 | 12.0 | 21.0 | 0.00 | 0.00 | 0.00 | 32 | 1298.0 |
| 20260906202635 | 86 | 159 | 6.0 | 9.0 | 0.00 | 0.00 | 0.00 | 32 | 1297.9 |
| 20260906202134 | 86 | 104 | 6.0 | 8.0 | 0.00 | 0.00 | 0.00 | 32 | 1298.1 |
| 20260906201629 | 85 | 135 | 9.0 | 15.0 | 0.00 | 0.00 | 0.00 | 33 | 1298.1 |
| 20260906201128 | 85 | 123 | 11.0 | 15.0 | 0.00 | 0.00 | 0.00 | 33 | 1298.1 |
| 20260906200625 | 87 | 134 | 13.0 | 17.0 | 0.00 | 0.00 | 0.00 | 32 | 1298.0 |
| 20260906200121 | 87 | 165 | 6.0 | 9.0 | 0.00 | 0.00 | 0.00 | 32 | 1298.2 |
| 20260906195620 | 85 | 120 | 5.0 | 9.0 | 0.00 | 0.00 | 0.00 | 33 | 1298.4 |
| 20260906195118 | 86 | 301 | 4.0 | 9.0 | 0.00 | 0.00 | 0.00 | 31 | 1298.4 |
| 20260906194614 | 86 | 141 | 11.0 | 16.0 | 0.00 | 0.00 | 0.00 | 32 | 1298.5 |
| 20260906194109 | 86 | 157 | 7.0 | 10.0 | 0.00 | 0.00 | 0.00 | 33 | 1298.2 |
| 20260906193609 | 87 | 176 | 5.0 | 9.0 | 0.00 | 0.00 | 0.00 | 32 | 1298.8 |
| 20260906193104 | 86 | 346 | 0.0 | 8.0 | 0.00 | 0.00 | 0.00 | 32 | 1298.7 |
| 20260906192559 | 87 | 133 | 4.0 | 9.0 | 0.00 | 0.00 | 0.00 | 31 | 1298.6 |
| 20260906192058 | 86 | 237 | 4.0 | 8.0 | 0.00 | 0.00 | 0.00 | 31 | 1298.6 |
| 20260906191554 | 87 | 217 | 5.0 | 9.0 | 0.00 | 0.00 | 0.00 | 31 | 1298.8 |
| 20260906191053 | 87 | 176 | 3.0 | 8.0 | 0.00 | 0.00 | 0.00 | 30 | 1299.0 |
| 20260906190552 | 87 | 128 | 3.0 | 10.0 | 0.00 | 0.00 | 0.00 | 31 | 1299.0 |
| 20260906190047 | 87 | 297 | 3.0 | 6.0 | 0.00 | 0.00 | 0.00 | 30 | 1299.0 |
| 20260906185546 | 87 | 160 | 3.0 | 7.0 | 0.00 | 0.00 | 0.00 | 30 | 1299.2 |
| 20260906185045 | 87 | 184 | 5.0 | 7.0 | 0.00 | 0.00 | 0.00 | 31 | 1299.1 |
| 20260906184540 | 86 | 20 | 5.0 | 10.0 | 0.00 | 0.00 | 0.00 | 32 | 1299.3 |
| 20260906184036 | 86 | 187 | 5.0 | 7.0 | 0.00 | 0.00 | 0.00 | 30 | 1299.5 |
| 20260906183532 | 86 | 264 | 1.0 | 9.0 | 0.00 | 0.00 | 0.00 | 31 | 1299.6 |
| 20260906183027 | 85 | 148 | 4.0 | 8.0 | 0.00 | 0.00 | 0.00 | 35 | 1299.5 |
| 20260906182522 | 85 | 332 | 0.0 | 6.0 | 0.00 | 0.00 | 0.00 | 34 | 1299.5 |
| 20260906182019 | 85 | 11 | 1.0 | 2.0 | 0.00 | 0.00 | 0.00 | 33 | 1299.8 |
| 20260906181514 | 84 | 152 | 2.0 | 5.0 | 0.00 | 0.00 | 0.00 | 34 | 1300.2 |
| 20260906181009 | 84 | 127 | 5.0 | 9.0 | 0.00 | 0.00 | 0.00 | 34 | 1299.9 |
| 20260906180504 | 85 | 241 | 0.0 | 3.0 | 0.00 | 0.00 | 0.00 | 34 | 1299.9 |
| 20260906180002 | 84 | 167 | 5.0 | 8.0 | 0.00 | 0.00 | 0.00 | 34 | 1300.3 |
| 20260906175457 | 83 | 235 | 3.0 | 6.0 | 0.00 | 0.00 | 0.00 | 34 | 1300.4 |
| 20260906174956 | 83 | 345 | 0.0 | 3.0 | 0.00 | 0.00 | 0.00 | 34 | 1300.5 |
| 20260906174455 | 82 | 14 | 0.0 | 1.0 | 0.00 | 0.00 | 0.00 | 38 | 1300.7 |
| 20260906173950 | 83 | 119 | 3.0 | 7.0 | 0.00 | 0.00 | 0.00 | 35 | 1300.7 |
| 20260906173445 | 82 | 99 | 5.0 | 6.0 | 0.00 | 0.00 | 0.00 | 36 | 1300.5 |
| 20260906172945 | 81 | 83 | 3.0 | 3.0 | 0.00 | 0.00 | 0.00 | 36 | 1300.7 |
| 20260906172441 | 83 | 138 | 4.0 | 8.0 | 0.00 | 0.00 | 0.00 | 35 | 1300.9 |
| 20260906171936 | 82 | 200 | 3.0 | 6.0 | 0.00 | 0.00 | 0.00 | 36 | 1301.0 |
| 20260906171431 | 82 | 183 | 0.0 | 2.0 | 0.00 | 0.00 | 0.00 | 36 | 1301.0 |
| 20260906170927 | 81 | 151 | 4.0 | 7.0 | 0.00 | 0.00 | 0.00 | 36 | 1301.2 |
| 20260906170423 | 82 | 114 | 7.0 | 8.0 | 0.00 | 0.00 | 0.00 | 34 | 1301.0 |
| 20260906165919 | 81 | 276 | 1.0 | 6.0 | 0.00 | 0.00 | 0.00 | 36 | 1301.3 |
| 20260906165418 | 81 | 169 | 3.0 | 5.0 | 0.00 | 0.00 | 0.00 | 37 | 1301.2 |
| 20260906164914 | 80 | 73 | 2.0 | 5.0 | 0.00 | 0.00 | 0.00 | 34 | 1301.4 |
| 20260906164412 | 80 | 120 | 2.0 | 5.0 | 0.00 | 0.00 | 0.00 | 33 | 1301.4 |
| 20260906163909 | 79 | 122 | 1.0 | 7.0 | 0.00 | 0.00 | 0.00 | 37 | 1301.4 |
| 20260906163404 | 80 | 160 | 2.0 | 2.0 | 0.00 | 0.00 | 0.00 | 36 | 1301.6 |
| 20260906162902 | 80 | 327 | 0.0 | 5.0 | 0.00 | 0.00 | 0.00 | 35 | 1301.6 |
| 20260906162401 | 79 | 294 | 0.0 | 5.0 | 0.00 | 0.00 | 0.00 | 39 | 1301.5 |
| 20260906161857 | 78 | 65 | 3.0 | 3.0 | 0.00 | 0.00 | 0.00 | 38 | 1301.6 |
| 20260906161355 | 78 | 319 | 0.0 | 1.0 | 0.00 | 0.00 | 0.00 | 38 | 1301.6 |
| 20260906160855 | 76 | 151 | 2.0 | 5.0 | 0.00 | 0.00 | 0.00 | 41 | 1301.5 |
| 20260906160348 | 76 | 132 | 1.0 | 2.0 | 0.00 | 0.00 | 0.00 | 40 | 1301.8 |
| 20260906155847 | 78 | 24 | 1.0 | 1.0 | 0.00 | 0.00 | 0.00 | 41 | 1301.5 |
| 20260906155341 | 77 | 285 | 0.0 | 1.0 | 0.00 | 0.00 | 0.00 | 41 | 1301.6 |
| 20260906154837 | 77 | 94 | 1.0 | 3.0 | 0.00 | 0.00 | 0.00 | 40 | 1301.5 |
| 20260906154332 | 75 | 92 | 3.0 | 3.0 | 0.00 | 0.00 | 0.00 | 43 | 1301.4 |
| 20260906153830 | 75 | 207 | 0.0 | 1.0 | 0.00 | 0.00 | 0.00 | 43 | 1301.5 |
| 20260906153325 | 76 | 229 | 2.0 | 2.0 | 0.00 | 0.00 | 0.00 | 45 | 1301.3 |
| 20260906152819 | 74 | 299 | 0.0 | 0.0 | 0.00 | 0.00 | 0.00 | 45 | 1301.0 |
| 20260906152315 | 71 | 354 | 0.0 | 1.0 | 0.00 | 0.00 | 0.00 | 49 | 1301.3 |
| 20260906151813 | 72 | 16 | 2.0 | 2.0 | 0.00 | 0.00 | 0.00 | 46 | 1301.2 |
| 20260906151310 | 72 | 13 | 0.0 | 1.0 | 0.00 | 0.00 | 0.00 | 47 | 1301.4 |
| 20260906150805 | 74 | 55 | 0.0 | 2.0 | 0.00 | 0.00 | 0.00 | 46 | 1301.3 |
| 20260906150301 | 71 | 118 | 0.0 | 1.0 | 0.00 | 0.00 | 0.00 | 47 | 1301.8 |
| 20260906145800 | 70 | 286 | 0.0 | 0.0 | 0.00 | 0.00 | 0.00 | 49 | 1301.3 |
| 20260906145258 | 72 | 300 | 0.0 | 0.0 | 0.00 | 0.00 | 0.00 | 47 | 1301.5 |
| 20260906144753 | 71 | 54 | 0.0 | 2.0 | 0.00 | 0.00 | 0.00 | 49 | 1301.3 |
| 20260906144248 | 71 | 123 | 0.0 | 0.0 | 0.00 | 0.00 | 0.00 | 48 | 1301.5 |
| 20260906143747 | 69 | 297 | 0.0 | 1.0 | 0.00 | 0.00 | 0.00 | 51 | 1301.6 |
| 20260906143244 | 69 | 138 | 3.0 | 3.0 | 0.00 | 0.00 | 0.00 | 52 | 1301.5 |
| 20260906142744 | 68 | 39 | 0.0 | 1.0 | 0.00 | 0.00 | 0.00 | 55 | 1301.5 |
| 20260906142239 | 69 | 249 | 0.0 | 1.0 | 0.00 | 0.00 | 0.00 | 53 | 1301.4 |
| 20260906141738 | 68 | 282 | 0.0 | 1.0 | 0.00 | 0.00 | 0.00 | 51 | 1301.5 |
| 20260906141233 | 67 | 329 | 0.0 | 0.0 | 0.00 | 0.00 | 0.00 | 56 | 1301.6 |
| 20260906140732 | 66 | 304 | 0.0 | 0.0 | 0.00 | 0.00 | 0.00 | 58 | 1301.6 |
| 20260906140227 | 66 | 319 | 0.0 | 0.0 | 0.00 | 0.00 | 0.00 | 60 | 1301.4 |
| 20260906135724 | 64 | 144 | 0.0 | 0.0 | 0.00 | 0.00 | 0.00 | 64 | 1301.4 |
| 20260906135220 | 63 | 317 | 0.0 | 0.0 | 0.00 | 0.00 | 0.00 | 63 | 1301.4 |
| 20260906134716 | 63 | 316 | 0.0 | 0.0 | 0.00 | 0.00 | 0.00 | 62 | 1301.3 |
| 20260906134211 | 62 | 316 | 0.0 | 0.0 | 0.00 | 0.00 | 0.00 | 63 | 1300.9 |
| 20260906133706 | 62 | 289 | 0.0 | 0.0 | 0.00 | 0.00 | 0.00 | 61 | 1301.3 |
| 20260906133155 | 62 | 287 | 0.0 | 0.0 | 0.00 | 0.00 | 0.00 | 64 | 1300.9 |
| 20260906132651 | 60 | 259 | 0.0 | 0.0 | 0.00 | 0.00 | 0.00 | 65 | 1301.0 |
| 20260906132146 | 58 | 251 | 0.0 | 1.0 | 0.00 | 0.00 | 0.00 | 67 | 1300.9 |
| 20260906131642 | 56 | 239 | 0.0 | 2.0 | 0.00 | 0.00 | 0.00 | 69 | 1300.9 |
| 20260906131137 | 55 | 293 | 0.0 | 0.0 | 0.00 | 0.00 | 0.00 | 70 | 1300.9 |
| 20260906130632 | 55 | 253 | 0.0 | 1.0 | 0.00 | 0.00 | 0.00 | 73 | 1300.8 |
| 20260906130127 | 54 | 251 | 0.0 | 1.0 | 0.00 | 0.00 | 0.00 | 72 | 1301.0 |
| 20260906125624 | 55 | 265 | 1.0 | 1.0 | 0.00 | 0.00 | 0.00 | 73 | 1301.0 |
| 20260906125118 | 54 | 250 | 0.0 | 0.0 | 0.00 | 0.00 | 0.00 | 72 | 1300.9 |
| 20260906124614 | 54 | 266 | 0.0 | 1.0 | 0.00 | 0.00 | 0.00 | 73 | 1300.9 |
| 20260906124109 | 54 | 205 | 0.0 | 1.0 | 0.00 | 0.00 | 0.00 | 73 | 1300.9 |
| 20260906123609 | 54 | 276 | 0.0 | 1.0 | 0.00 | 0.00 | 0.00 | 72 | 1300.8 |
| 20260906123104 | 53 | 282 | 0.0 | 1.0 | 0.00 | 0.00 | 0.00 | 72 | 1300.8 |
| 20260906122603 | 54 | 261 | 0.0 | 1.0 | 0.00 | 0.00 | 0.00 | 72 | 1301.0 |
| 20260906122058 | 54 | 248 | 0.0 | 2.0 | 0.00 | 0.00 | 0.00 | 73 | 1300.8 |
| 20260906121554 | 54 | 254 | 0.0 | 0.0 | 0.00 | 0.00 | 0.00 | 71 | 1300.5 |
| 20260906121051 | 55 | 253 | 0.0 | 1.0 | 0.00 | 0.00 | 0.00 | 71 | 1300.8 |
| 20260906120545 | 55 | 272 | 0.0 | 1.0 | 0.00 | 0.00 | 0.00 | 69 | 1300.8 |
| 20260906120043 | 56 | 242 | 1.0 | 1.0 | 0.00 | 0.00 | 0.00 | 69 | 1300.9 |
| 20260906115542 | 55 | 278 | 0.0 | 0.0 | 0.00 | 0.00 | 0.00 | 67 | 1300.7 |
| 20260906115038 | 55 | 241 | 0.0 | 2.0 | 0.00 | 0.00 | 0.00 | 69 | 1300.7 |
| 20260906114532 | 55 | 277 | 0.0 | 1.0 | 0.00 | 0.00 | 0.00 | 70 | 1300.5 |
| 20260906114028 | 55 | 280 | 0.0 | 0.0 | 0.00 | 0.00 | 0.00 | 71 | 1300.9 |
| 20260906113527 | 55 | 238 | 0.0 | 1.0 | 0.00 | 0.00 | 0.00 | 70 | 1300.5 |
| 20260906113022 | 54 | 233 | 1.0 | 1.0 | 0.00 | 0.00 | 0.00 | 70 | 1300.8 |
| 20260906112517 | 54 | 212 | 1.0 | 2.0 | 0.00 | 0.00 | 0.00 | 72 | 1300.5 |
| 20260906112013 | 55 | 285 | 0.0 | 1.0 | 0.00 | 0.00 | 0.00 | 72 | 1300.5 |
| 20260906111507 | 54 | 280 | 0.0 | 0.0 | 0.00 | 0.00 | 0.00 | 70 | 1300.5 |
| 20260906111002 | 55 | 138 | 0.0 | 1.0 | 0.00 | 0.00 | 0.00 | 71 | 1300.4 |
| 20260906110457 | 55 | 231 | 1.0 | 1.0 | 0.00 | 0.00 | 0.00 | 70 | 1300.4 |
| 20260906105955 | 55 | 262 | 0.0 | 1.0 | 0.00 | 0.00 | 0.00 | 71 | 1300.4 |
| 20260906105452 | 55 | 272 | 0.0 | 1.0 | 0.00 | 0.00 | 0.00 | 70 | 1300.5 |
| 20260906104948 | 55 | 275 | 0.0 | 1.0 | 0.00 | 0.00 | 0.00 | 69 | 1300.7 |
| 20260906104446 | 55 | 267 | 0.0 | 1.0 | 0.00 | 0.00 | 0.00 | 70 | 1300.5 |
| 20260906103945 | 55 | 260 | 0.0 | 0.0 | 0.00 | 0.00 | 0.00 | 70 | 1300.4 |
| 20260906103444 | 55 | 278 | 0.0 | 0.0 | 0.00 | 0.00 | 0.00 | 71 | 1300.2 |
| 20260906102939 | 55 | 236 | 0.0 | 1.0 | 0.00 | 0.00 | 0.00 | 70 | 1300.3 |
| 20260906102438 | 56 | 269 | 0.0 | 0.0 | 0.00 | 0.00 | 0.00 | 71 | 1300.5 |
| 20260906101933 | 56 | 285 | 0.0 | 0.0 | 0.00 | 0.00 | 0.00 | 71 | 1300.7 |
| 20260906101429 | 56 | 288 | 0.0 | 0.0 | 0.00 | 0.00 | 0.00 | 68 | 1300.5 |
| 20260906100924 | 56 | 291 | 0.0 | 0.0 | 0.00 | 0.00 | 0.00 | 68 | 1300.4 |
| 20260906100423 | 57 | 268 | 0.0 | 1.0 | 0.00 | 0.00 | 0.00 | 68 | 1300.4 |
| 20260906095918 | 57 | 277 | 0.0 | 0.0 | 0.00 | 0.00 | 0.00 | 67 | 1300.3 |
| 20260906095414 | 58 | 235 | 1.0 | 1.0 | 0.00 | 0.00 | 0.00 | 66 | 1300.3 |
| 20260906094914 | 58 | 229 | 0.0 | 1.0 | 0.00 | 0.00 | 0.00 | 65 | 1300.5 |
| 20260906094408 | 58 | 217 | 1.0 | 2.0 | 0.00 | 0.00 | 0.00 | 66 | 1300.3 |
| 20260906093905 | 58 | 237 | 0.0 | 1.0 | 0.00 | 0.00 | 0.00 | 66 | 1300.3 |
| 20260906093401 | 58 | 268 | 0.0 | 0.0 | 0.00 | 0.00 | 0.00 | 66 | 1300.7 |
| 20260906092855 | 58 | 240 | 0.0 | 0.0 | 0.00 | 0.00 | 0.00 | 66 | 1300.4 |
| 20260906092354 | 58 | 251 | 0.0 | 1.0 | 0.00 | 0.00 | 0.00 | 66 | 1300.4 |
| 20260906091850 | 58 | 284 | 0.0 | 0.0 | 0.00 | 0.00 | 0.00 | 65 | 1300.3 |
| 20260906091346 | 58 | 271 | 0.0 | 1.0 | 0.00 | 0.00 | 0.00 | 66 | 1300.2 |
| 20260906090842 | 58 | 282 | 0.0 | 0.0 | 0.00 | 0.00 | 0.00 | 66 | 1300.4 |
| 20260906090342 | 59 | 260 | 0.0 | 0.0 | 0.00 | 0.00 | 0.00 | 67 | 1300.2 |
| 20260906085836 | 59 | 261 | 0.0 | 0.0 | 0.00 | 0.00 | 0.00 | 67 | 1300.2 |
| 20260906085335 | 59 | 285 | 0.0 | 1.0 | 0.00 | 0.00 | 0.00 | 66 | 1300.1 |
| 20260906084830 | 59 | 265 | 0.0 | 1.0 | 0.00 | 0.00 | 0.00 | 65 | 1300.3 |
| 20260906084330 | 59 | 243 | 0.0 | 1.0 | 0.00 | 0.00 | 0.00 | 66 | 1300.2 |
| 20260906083825 | 59 | 278 | 0.0 | 0.0 | 0.00 | 0.00 | 0.00 | 67 | 1300.3 |
| 20260906083320 | 59 | 275 | 0.0 | 0.0 | 0.00 | 0.00 | 0.00 | 67 | 1300.4 |
| 20260906082814 | 59 | 282 | 0.0 | 1.0 | 0.00 | 0.00 | 0.00 | 67 | 1300.2 |
| 20260906082310 | 58 | 241 | 0.0 | 1.0 | 0.00 | 0.00 | 0.00 | 66 | 1300.7 |
| 20260906081805 | 58 | 240 | 0.0 | 0.0 | 0.00 | 0.00 | 0.00 | 67 | 1300.5 |
| 20260906081301 | 58 | 267 | 0.0 | 0.0 | 0.00 | 0.00 | 0.00 | 67 | 1300.5 |
| 20260906080758 | 58 | 270 | 0.0 | 0.0 | 0.00 | 0.00 | 0.00 | 68 | 1300.4 |
| 20260906080254 | 59 | 262 | 0.0 | 1.0 | 0.00 | 0.00 | 0.00 | 67 | 1300.4 |
| 20260906075753 | 58 | 281 | 0.0 | 1.0 | 0.00 | 0.00 | 0.00 | 67 | 1300.7 |
| 20260906075253 | 58 | 260 | 0.0 | 0.0 | 0.00 | 0.00 | 0.00 | 68 | 1300.5 |
| 20260906074748 | 59 | 287 | 0.0 | 1.0 | 0.00 | 0.00 | 0.00 | 66 | 1300.5 |
| 20260906074247 | 58 | 280 | 0.0 | 1.0 | 0.00 | 0.00 | 0.00 | 68 | 1300.7 |
| 20260906073747 | 58 | 261 | 0.0 | 0.0 | 0.00 | 0.00 | 0.00 | 70 | 1300.7 |
| 20260906073242 | 59 | 248 | 0.0 | 1.0 | 0.00 | 0.00 | 0.00 | 70 | 1300.5 |
| 20260906072738 | 59 | 268 | 0.0 | 2.0 | 0.00 | 0.00 | 0.00 | 70 | 1300.8 |
| 20260906072234 | 59 | 282 | 0.0 | 2.0 | 0.00 | 0.00 | 0.00 | 71 | 1300.5 |
| 20260906071730 | 59 | 274 | 0.0 | 1.0 | 0.00 | 0.00 | 0.00 | 73 | 1300.5 |
| 20260906071230 | 60 | 265 | 0.0 | 0.0 | 0.00 | 0.00 | 0.00 | 71 | 1300.5 |
| 20260906070726 | 60 | 281 | 0.0 | 1.0 | 0.00 | 0.00 | 0.00 | 68 | 1300.9 |
| 20260906070222 | 60 | 295 | 0.0 | 0.0 | 0.00 | 0.00 | 0.00 | 68 | 1300.7 |
| 20260906065721 | 60 | 285 | 0.0 | 0.0 | 0.00 | 0.00 | 0.00 | 68 | 1300.8 |
| 20260906065217 | 61 | 282 | 0.0 | 2.0 | 0.00 | 0.00 | 0.00 | 67 | 1300.8 |
| 20260906064712 | 62 | 260 | 0.0 | 0.0 | 0.00 | 0.00 | 0.00 | 65 | 1300.7 |
| 20260906064208 | 63 | 273 | 0.0 | 0.0 | 0.00 | 0.00 | 0.00 | 66 | 1300.7 |
| 20260906063702 | 64 | 270 | 0.0 | 1.0 | 0.00 | 0.00 | 0.00 | 64 | 1300.9 |
| 20260906063158 | 65 | 290 | 1.0 | 5.0 | 0.00 | 0.00 | 0.00 | 58 | 1300.8 |
| 20260906062654 | 66 | 297 | 0.0 | 0.0 | 0.00 | 0.00 | 0.00 | 61 | 1300.8 |
| 20260906062152 | 67 | 263 | 3.0 | 3.0 | 0.00 | 0.00 | 0.00 | 59 | 1300.7 |
| 20260906061649 | 66 | 261 | 3.0 | 3.0 | 0.00 | 0.00 | 0.00 | 60 | 1300.8 |
| 20260906061148 | 67 | 293 | 4.0 | 6.0 | 0.00 | 0.00 | 0.00 | 59 | 1300.8 |
| 20260906060645 | 66 | 293 | 5.0 | 6.0 | 0.00 | 0.00 | 0.00 | 61 | 1300.8 |
| 20260906060142 | 68 | 304 | 2.0 | 5.0 | 0.00 | 0.00 | 0.00 | 59 | 1300.8 |
| 20260906055637 | 67 | 301 | 3.0 | 5.0 | 0.00 | 0.00 | 0.00 | 61 | 1300.5 |
| 20260906055132 | 68 | 282 | 3.0 | 5.0 | 0.00 | 0.00 | 0.00 | 58 | 1300.7 |
| 20260906054627 | 70 | 280 | 7.0 | 8.0 | 0.00 | 0.00 | 0.00 | 55 | 1300.7 |
| 20260906054122 | 69 | 286 | 3.0 | 6.0 | 0.00 | 0.00 | 0.00 | 56 | 1300.5 |
| 20260906053619 | 70 | 265 | 4.0 | 5.0 | 0.00 | 0.00 | 0.00 | 53 | 1300.5 |
| 20260906053114 | 69 | 248 | 9.0 | 10.0 | 0.00 | 0.00 | 0.00 | 53 | 1300.7 |
| 20260906052610 | 69 | 255 | 8.0 | 9.0 | 0.00 | 0.00 | 0.00 | 56 | 1300.7 |
| 20260906052106 | 67 | 264 | 3.0 | 3.0 | 0.00 | 0.00 | 0.00 | 57 | 1300.8 |
| 20260906051602 | 66 | 320 | 0.0 | 0.0 | 0.00 | 0.00 | 0.00 | 62 | 1300.8 |
| 20260906051057 | 68 | 321 | 0.0 | 1.0 | 0.00 | 0.00 | 0.00 | 61 | 1300.5 |
| 20260906050552 | 64 | 263 | 3.0 | 5.0 | 0.00 | 0.00 | 0.00 | 63 | 1300.8 |
| 20260906050047 | 64 | 308 | 0.0 | 0.0 | 0.00 | 0.00 | 0.00 | 69 | 1300.4 |
| 20260906045545 | 64 | 281 | 0.0 | 0.0 | 0.00 | 0.00 | 0.00 | 68 | 1300.5 |
| 20260906045042 | 64 | 281 | 0.0 | 1.0 | 0.00 | 0.00 | 0.00 | 68 | 1300.8 |
| 20260906044536 | 65 | 291 | 0.0 | 0.0 | 0.00 | 0.00 | 0.00 | 67 | 1300.5 |
| 20260906044032 | 64 | 286 | 0.0 | 0.0 | 0.00 | 0.00 | 0.00 | 67 | 1300.7 |
| 20260906043527 | 66 | 325 | 0.0 | 0.0 | 0.00 | 0.00 | 0.00 | 65 | 1300.8 |
| 20260906043024 | 66 | 293 | 0.0 | 0.0 | 0.00 | 0.00 | 0.00 | 63 | 1300.4 |
| 20260906042523 | 67 | 278 | 0.0 | 1.0 | 0.00 | 0.00 | 0.00 | 63 | 1300.5 |
| 20260906042023 | 67 | 212 | 0.0 | 2.0 | 0.00 | 0.00 | 0.00 | 63 | 1300.8 |
| 20260906041520 | 66 | 115 | 1.0 | 2.0 | 0.00 | 0.00 | 0.00 | 63 | 1300.4 |
| 20260906041019 | 68 | 97 | 3.0 | 3.0 | 0.00 | 0.00 | 0.00 | 61 | 1300.4 |
| 20260906040514 | 70 | 236 | 0.0 | 1.0 | 0.00 | 0.00 | 0.00 | 59 | 1300.4 |
| 20260906040010 | 71 | 7 | 0.0 | 3.0 | 0.00 | 0.00 | 0.00 | 58 | 1300.3 |
| 20260906035505 | 71 | 180 | 3.0 | 5.0 | 0.00 | 0.00 | 0.00 | 57 | 1300.4 |
| 20260906035000 | 71 | 102 | 1.0 | 5.0 | 0.00 | 0.00 | 0.00 | 58 | 1300.5 |
| 20260906034500 | 71 | 225 | 2.0 | 5.0 | 0.00 | 0.00 | 0.00 | 57 | 1300.4 |
| 20260906033955 | 71 | 333 | 2.0 | 5.0 | 0.00 | 0.00 | 0.00 | 57 | 1300.4 |
| 20260906033450 | 71 | 237 | 3.0 | 6.0 | 0.00 | 0.00 | 0.00 | 56 | 1300.3 |
| 20260906032946 | 72 | 239 | 3.0 | 7.0 | 0.00 | 0.00 | 0.00 | 55 | 1300.3 |
| 20260906032442 | 72 | 354 | 2.0 | 7.0 | 0.00 | 0.00 | 0.00 | 54 | 1300.3 |
| 20260906031936 | 72 | 192 | 2.0 | 6.0 | 0.00 | 0.00 | 0.00 | 54 | 1300.3 |
| 20260906031432 | 72 | 181 | 2.0 | 6.0 | 0.00 | 0.00 | 0.00 | 53 | 1300.4 |
| 20260906030927 | 71 | 195 | 4.0 | 10.0 | 0.00 | 0.00 | 0.00 | 53 | 1300.2 |
| 20260906030421 | 70 | 148 | 3.0 | 7.0 | 0.00 | 0.00 | 0.00 | 51 | 1300.4 |
| 20260906025916 | 68 | 121 | 2.0 | 6.0 | 0.00 | 0.00 | 0.00 | 48 | 1300.2 |
| 20260906025410 | 66 | 88 | 4.0 | 7.0 | 0.00 | 0.00 | 0.00 | 50 | 1300.2 |
| 20260906024909 | 63 | 180 | 4.0 | 5.0 | 0.00 | 0.00 | 0.00 | 54 | 1299.9 |
| 20260906024408 | 64 | 297 | 0.0 | 0.0 | 0.00 | 0.00 | 0.00 | 51 | 1299.6 |
| 20260906023904 | 64 | 224 | 0.0 | 1.0 | 0.00 | 0.00 | 0.00 | 51 | 1299.5 |
| 20260906023400 | 64 | 258 | 0.0 | 0.0 | 0.00 | 0.00 | 0.00 | 50 | 1299.6 |
| 20260906022854 | 64 | 268 | 0.0 | 0.0 | 0.00 | 0.00 | 0.00 | 51 | 1299.5 |
| 20260906022350 | 64 | 209 | 1.0 | 1.0 | 0.00 | 0.00 | 0.00 | 51 | 1299.5 |
| 20260906021846 | 65 | 279 | 0.0 | 0.0 | 0.00 | 0.00 | 0.00 | 50 | 1299.3 |
| 20260906021345 | 65 | 272 | 0.0 | 1.0 | 0.00 | 0.00 | 0.00 | 52 | 1299.5 |
| 20260906020840 | 66 | 238 | 1.0 | 1.0 | 0.00 | 0.00 | 0.00 | 51 | 1299.3 |
| 20260906020339 | 66 | 282 | 0.0 | 1.0 | 0.00 | 0.00 | 0.00 | 48 | 1299.2 |
| 20260906015834 | 66 | 252 | 1.0 | 1.0 | 0.00 | 0.00 | 0.00 | 49 | 1299.2 |
| 20260906015333 | 66 | 281 | 0.0 | 1.0 | 0.00 | 0.00 | 0.00 | 49 | 1299.0 |
| 20260906014832 | 67 | 237 | 0.0 | 1.0 | 0.00 | 0.00 | 0.00 | 49 | 1299.0 |
| 20260906014327 | 69 | 287 | 0.0 | 0.0 | 0.00 | 0.00 | 0.00 | 46 | 1299.1 |
| 20260906013824 | 69 | 255 | 0.0 | 1.0 | 0.00 | 0.00 | 0.00 | 44 | 1299.1 |
| 20260906013319 | 70 | 296 | 0.0 | 0.0 | 0.00 | 0.00 | 0.00 | 43 | 1299.0 |
| 20260906012814 | 71 | 302 | 0.0 | 0.0 | 0.00 | 0.00 | 0.00 | 41 | 1298.8 |
| 20260906012309 | 72 | 282 | 0.0 | 1.0 | 0.00 | 0.00 | 0.00 | 42 | 1299.0 |
| 20260906011804 | 73 | 262 | 0.0 | 0.0 | 0.00 | 0.00 | 0.00 | 40 | 1299.1 |
| 20260906011304 | 73 | 306 | 0.0 | 0.0 | 0.00 | 0.00 | 0.00 | 37 | 1299.0 |
| 20260906010800 | 75 | 293 | 0.0 | 3.0 | 0.00 | 0.00 | 0.00 | 37 | 1299.0 |
| 20260906010256 | 77 | 166 | 1.0 | 2.0 | 0.00 | 0.00 | 0.00 | 37 | 1298.8 |
| 20260906005751 | 77 | 301 | 2.0 | 5.0 | 0.00 | 0.00 | 0.00 | 34 | 1298.8 |
| 20260906005250 | 77 | 175 | 3.0 | 6.0 | 0.00 | 0.00 | 0.00 | 35 | 1299.2 |
| 20260906004749 | 77 | 293 | 0.0 | 1.0 | 0.00 | 0.00 | 0.00 | 34 | 1299.0 |
| 20260906004244 | 78 | 279 | 1.0 | 2.0 | 0.00 | 0.00 | 0.00 | 35 | 1299.0 |
| 20260906003738 | 79 | 212 | 4.0 | 13.0 | 0.00 | 0.00 | 0.00 | 31 | 1299.0 |
| 20260906003234 | 78 | 116 | 17.0 | 23.0 | 0.00 | 0.00 | 0.00 | 34 | 1298.8 |
| 20260906002735 | 77 | 196 | 9.0 | 16.0 | 0.00 | 0.00 | 0.00 | 36 | 1299.5 |
| 20260906002234 | 79 | 279 | 0.0 | 1.0 | 0.00 | 0.00 | 0.00 | 37 | 1299.3 |
| 20260906001730 | 78 | 267 | 0.0 | 1.0 | 0.00 | 0.00 | 0.00 | 39 | 1299.2 |
| 20260906001225 | 79 | 312 | 0.0 | 2.0 | 0.00 | 0.00 | 0.00 | 35 | 1299.3 |
| 20260906000720 | 80 | 234 | 5.0 | 7.0 | 0.00 | 0.00 | 0.00 | 31 | 1299.1 |
| 20260906000215 | 80 | 357 | 2.0 | 9.0 | 0.00 | 0.00 | 0.00 | 30 | 1299.2 |
| 20260905235715 | 81 | 296 | 6.0 | 7.0 | 0.00 | 0.00 | 0.00 | 30 | 1299.5 |
| 20260905235209 | 80 | 186 | 0.0 | 6.0 | 0.00 | 0.00 | 0.00 | 28 | 1299.6 |
| 20260905234705 | 79 | 238 | 6.0 | 13.0 | 0.00 | 0.00 | 0.00 | 29 | 1299.7 |
| 20260905234200 | 79 | 309 | 0.0 | 2.0 | 0.00 | 0.00 | 0.00 | 30 | 1299.3 |
| 20260905233656 | 80 | 303 | 0.0 | 2.0 | 0.00 | 0.00 | 0.00 | 29 | 1299.2 |
| 20260905233155 | 79 | 314 | 0.0 | 1.0 | 0.00 | 0.00 | 0.00 | 30 | 1299.3 |
| 20260905232650 | 79 | 276 | 6.0 | 11.0 | 0.00 | 0.00 | 0.00 | 31 | 1299.3 |
| 20260905232146 | 79 | 295 | 0.0 | 0.0 | 0.00 | 0.00 | 0.00 | 31 | 1299.5 |
| 20260905231641 | 79 | 277 | 0.0 | 1.0 | 0.00 | 0.00 | 0.00 | 32 | 1299.2 |
| 20260905231137 | 79 | 195 | 0.0 | 1.0 | 0.00 | 0.00 | 0.00 | 32 | 1299.2 |
| 20260905230633 | 80 | 285 | 0.0 | 1.0 | 0.00 | 0.00 | 0.00 | 31 | 1299.0 |
| 20260905230130 | 80 | 276 | 0.0 | 1.0 | 0.00 | 0.00 | 0.00 | 31 | 1298.8 |
| 20260905225624 | 81 | 124 | 1.0 | 3.0 | 0.00 | 0.00 | 0.00 | 30 | 1299.1 |
| 20260905225119 | 81 | 246 | 3.0 | 3.0 | 0.00 | 0.00 | 0.00 | 29 | 1298.8 |
| 20260905224613 | 81 | 194 | 3.0 | 7.0 | 0.00 | 0.00 | 0.00 | 29 | 1299.0 |
| 20260905224112 | 81 | 42 | 5.0 | 7.0 | 0.00 | 0.00 | 0.00 | 31 | 1299.0 |
| 20260905223610 | 82 | 248 | 2.0 | 9.0 | 0.00 | 0.00 | 0.00 | 30 | 1299.2 |
| 20260905223106 | 85 | 306 | 3.0 | 10.0 | 0.00 | 0.00 | 0.00 | 28 | 1299.2 |
| 20260905222606 | 86 | 123 | 5.0 | 11.0 | 0.00 | 0.00 | 0.00 | 28 | 1298.8 |
| 20260905222101 | 86 | 227 | 4.0 | 6.0 | 0.00 | 0.00 | 0.00 | 27 | 1299.1 |
| 20260905221557 | 86 | 203 | 3.0 | 7.0 | 0.00 | 0.00 | 0.00 | 26 | 1299.0 |
| 20260905221053 | 84 | 147 | 7.0 | 9.0 | 0.00 | 0.00 | 0.00 | 27 | 1299.2 |
| 20260905220549 | 82 | 116 | 4.0 | 7.0 | 0.00 | 0.00 | 0.00 | 30 | 1299.1 |